Time;durP1;ratioP1;P1;durP2;ratioP2;P2;SDS_P1;SDS_P2;PMS_P1;PMS_P2;Temp;Humidity;BMP_temperature;BMP_pressure;BME280_temperature;BME280_humidity;BME280_pressure;Samples;Min_cycle;Max_cycle;Signal;HPM_P1;HPM_P2
2021/07/15 00:01:39;;;;;;;7.62;5.30;;;;;;;29.62;51.23;101474.66;1612257;88;21020;-50
2021/07/15 00:04:05;;;;;;;9.83;5.25;;;;;;;29.66;51.22;101468.03;1611276;88;21071;-47
2021/07/15 00:06:33;;;;;;;10.38;5.62;;;;;;;29.70;51.73;101465.43;1611099;88;21047;-49
2021/07/15 00:09:02;;;;;;;9.30;5.55;;;;;;;29.73;52.15;101471.42;1609083;88;21093;-47
2021/07/15 00:11:30;;;;;;;12.93;6.12;;;;;;;29.76;52.60;101468.92;1608514;88;21039;-47
2021/07/15 00:13:58;;;;;;;6.40;5.37;;;;;;;29.80;53.36;101466.84;1613936;88;21036;-48
2021/07/15 00:16:27;;;;;;;9.18;6.03;;;;;;;29.83;53.97;101474.11;1614577;87;21083;-50
2021/07/15 00:18:55;;;;;;;8.68;5.10;;;;;;;29.87;53.99;101467.95;1613254;87;21091;-51
2021/07/15 00:21:24;;;;;;;8.68;5.92;;;;;;;29.89;54.20;101466.84;1616582;88;21099;-51
2021/07/15 00:23:53;;;;;;;7.78;4.78;;;;;;;29.92;54.49;101462.55;1615165;88;21622;-48
2021/07/15 00:26:23;;;;;;;10.55;5.22;;;;;;;29.94;54.71;101458.38;1614702;88;21051;-47
2021/07/15 00:28:50;;;;;;;10.08;4.97;;;;;;;29.97;54.60;101460.27;1613730;88;21118;-47
2021/07/15 00:31:18;;;;;;;14.20;5.58;;;;;;;29.98;54.55;101466.00;1612602;88;21619;-50
2021/07/15 00:33:45;;;;;;;6.40;5.37;;;;;;;30.00;54.58;101457.32;1613771;88;21067;-47
2021/07/15 00:36:13;;;;;;;5.97;4.80;;;;;;;30.03;54.50;101454.82;1614437;88;21063;-49
2021/07/15 00:38:41;;;;;;;10.13;5.33;;;;;;;30.04;54.53;101461.41;1605336;88;21083;-47
2021/07/15 00:41:08;;;;;;;8.48;4.80;;;;;;;30.04;54.59;101458.73;1612367;88;21552;-49
2021/07/15 00:43:36;;;;;;;7.25;4.87;;;;;;;30.06;54.42;101458.09;1617230;88;21044;-46
2021/07/15 00:46:04;;;;;;;7.00;4.62;;;;;;;30.08;54.01;101458.80;1609481;88;21067;-45
2021/07/15 00:48:31;;;;;;;8.10;4.70;;;;;;;30.07;53.62;101451.72;1609439;88;21063;-46
2021/07/15 00:50:59;;;;;;;7.50;4.65;;;;;;;30.08;53.15;101450.75;1611603;88;21079;-46
2021/07/15 00:53:26;;;;;;;9.63;4.37;;;;;;;30.09;52.45;101456.97;1611307;88;21102;-45
2021/07/15 00:55:53;;;;;;;5.90;4.05;;;;;;;30.08;51.27;101452.58;1579638;89;21598;-49
2021/07/15 00:58:21;;;;;;;5.40;3.52;;;;;;;30.06;49.09;101446.02;1611301;88;21060;-48
2021/07/15 01:00:49;;;;;;;5.60;3.72;;;;;;;30.05;47.36;101451.02;1614406;88;21087;-48
2021/07/15 01:03:19;;;;;;;9.00;3.70;;;;;;;30.04;45.92;101443.11;1612354;88;21071;-46
2021/07/15 01:05:49;;;;;;;5.67;3.70;;;;;;;30.02;44.95;101450.45;1605027;89;21098;-45
2021/07/15 01:08:17;;;;;;;7.95;4.12;;;;;;;29.98;44.33;101441.85;1605034;89;21632;-46
2021/07/15 01:11:04;;;;;;;5.25;3.80;;;;;;;29.94;44.09;101443.13;1605767;89;21031;-48
2021/07/15 01:13:51;;;;;;;7.90;4.40;;;;;;;29.91;43.93;101445.22;1594810;89;21106;-49
2021/07/15 01:16:45;;;;;;;4.83;4.08;;;;;;;29.86;43.67;101444.33;1598563;87;21102;-48
2021/07/15 01:19:33;;;;;;;7.60;4.42;;;;;;;29.81;43.38;101442.55;1605206;88;21098;-46
2021/07/15 01:22:08;;;;;;;7.83;3.80;;;;;;;29.76;43.27;101440.76;1606663;89;21098;-46
2021/07/15 01:25:26;;;;;;;7.97;4.05;;;;;;;29.71;43.29;101447.02;1605256;89;21147;-45
2021/07/15 01:28:02;;;;;;;4.67;4.08;;;;;;;29.67;43.46;101445.61;1601125;87;21110;-45
2021/07/15 01:30:47;;;;;;;8.43;4.10;;;;;;;29.60;43.57;101444.45;1600972;87;21066;-48
2021/07/15 01:33:23;;;;;;;13.28;4.53;;;;;;;29.56;43.41;101443.03;1606552;89;21160;-48
2021/07/15 01:35:55;;;;;;;9.73;4.20;;;;;;;29.51;43.28;101445.30;1589634;89;21561;-48
2021/07/15 01:38:26;;;;;;;9.38;4.45;;;;;;;29.46;43.41;101442.17;1569178;89;21056;-48
2021/07/15 01:41:08;;;;;;;12.25;5.08;;;;;;;29.43;43.75;101445.15;1568530;91;21105;-48
2021/07/15 01:43:45;;;;;;;14.15;4.85;;;;;;;29.39;44.08;101451.74;1539423;92;21547;-50
2021/07/15 01:46:13;;;;;;;6.25;4.67;;;;;;;29.38;44.31;101446.04;1522499;93;21196;-45
2021/07/15 01:48:42;;;;;;;8.00;5.03;;;;;;;29.35;44.37;101445.81;1515315;93;21138;-45
2021/07/15 01:51:09;;;;;;;14.43;5.50;;;;;;;29.32;44.60;101441.23;1511268;93;21157;-49
2021/07/15 01:53:37;;;;;;;9.78;5.67;;;;;;;29.30;44.92;101437.35;1507330;93;21129;-46
2021/07/15 01:56:05;;;;;;;11.95;5.75;;;;;;;29.29;45.22;101436.13;1500297;93;21108;-47
2021/07/15 01:58:35;;;;;;;6.08;5.17;;;;;;;29.28;45.18;101443.83;1516659;93;21090;-49
2021/07/15 02:01:04;;;;;;;19.50;6.87;;;;;;;29.26;45.11;101436.41;1515757;93;21104;-46
2021/07/15 02:03:31;;;;;;;6.65;5.90;;;;;;;29.25;45.35;101436.91;1504735;93;21173;-44
2021/07/15 02:05:57;;;;;;;15.38;6.85;;;;;;;29.25;45.55;101437.38;1504183;94;21605;-48
2021/07/15 02:08:24;;;;;;;11.60;6.85;;;;;;;29.23;45.80;101432.66;1502714;94;21157;-45
2021/07/15 02:10:53;;;;;;;10.08;6.65;;;;;;;29.22;45.96;101430.97;1480234;94;21665;-49
2021/07/15 02:13:21;;;;;;;8.68;5.70;;;;;;;29.22;46.12;101436.33;1465615;94;21060;-45
2021/07/15 02:15:50;;;;;;;6.75;5.53;;;;;;;29.21;46.33;101435.96;1502249;93;21117;-50
2021/07/15 02:18:21;;;;;;;5.78;5.25;;;;;;;29.20;46.47;101435.62;1499110;94;22377;-45
2021/07/15 02:20:51;;;;;;;13.25;5.90;;;;;;;29.20;46.42;101438.30;1504083;93;21143;-45
2021/07/15 02:23:21;;;;;;;6.37;4.97;;;;;;;29.21;46.38;101445.34;1500243;94;21708;-48
2021/07/15 02:25:50;;;;;;;8.25;4.85;;;;;;;29.21;46.29;101440.84;1500015;94;21184;-47
2021/07/15 02:28:21;;;;;;;10.50;5.55;;;;;;;29.22;46.32;101444.38;1498762;93;21131;-45
2021/07/15 02:31:03;;;;;;;8.68;4.65;;;;;;;29.21;46.35;101442.66;1499014;95;21095;-47
2021/07/15 02:33:30;;;;;;;;;;;;;;;29.22;46.32;101440.36;1443750;97;21583;-51
2021/07/15 02:36:00;;;;;;;8.10;5.15;;;;;;;29.21;46.55;101439.98;1471379;96;20190;-48
2021/07/15 02:38:27;;;;;;;10.38;5.53;;;;;;;29.18;46.75;101440.27;1501258;94;21105;-48
2021/07/15 02:40:56;;;;;;;12.18;5.92;;;;;;;29.15;46.92;101439.19;1496290;94;21140;-51
2021/07/15 02:43:23;;;;;;;10.80;5.92;;;;;;;29.15;47.02;101443.21;1550553;90;21574;-48
2021/07/15 02:45:52;;;;;;;14.10;6.12;;;;;;;29.13;46.82;101445.14;1541886;92;21635;-45
2021/07/15 02:48:19;;;;;;;14.68;6.62;;;;;;;29.12;46.84;101448.83;1529418;92;21117;-45
2021/07/15 02:50:46;;;;;;;10.88;6.97;;;;;;;29.11;46.97;101447.97;1540141;92;21094;-46
2021/07/15 02:53:14;;;;;;;10.32;7.20;;;;;;;29.13;47.43;101441.13;1541826;92;21152;-47
2021/07/15 02:55:48;;;;;;;9.58;6.80;;;;;;;29.13;47.75;101440.64;1546109;92;21182;-46
2021/07/15 02:58:19;;;;;;;13.90;7.70;;;;;;;29.15;47.95;101448.56;1552165;90;21118;-48
2021/07/15 03:01:01;;;;;;;13.00;6.53;;;;;;;29.17;48.22;101443.92;1555750;91;21048;-45
2021/07/15 03:03:49;;;;;;;9.13;6.90;;;;;;;29.19;48.28;101444.15;1521803;94;21136;-48
2021/07/15 03:06:19;;;;;;;9.83;6.78;;;;;;;29.18;48.36;101440.27;1518390;94;21051;-45
2021/07/15 03:08:53;;;;;;;;;;;;;;;29.21;48.41;101437.30;1524132;94;21128;-45
2021/07/15 03:11:20;;;;;;;15.28;7.50;;;;;;;29.26;48.39;101440.44;1516112;94;20471;-50
2021/07/15 03:13:48;;;;;;;10.40;6.92;;;;;;;29.25;48.49;101441.41;1520511;93;21072;-47
2021/07/15 03:16:16;;;;;;;9.70;6.45;;;;;;;29.26;48.60;101435.08;1514424;94;21136;-45
2021/07/15 03:18:44;;;;;;;10.15;7.10;;;;;;;29.26;48.70;101441.77;1514699;94;21086;-48
2021/07/15 03:21:12;;;;;;;9.10;7.40;;;;;;;29.26;48.78;101435.08;1514177;94;21173;-49
2021/07/15 03:23:39;;;;;;;13.03;7.05;;;;;;;29.26;48.94;101435.93;1486555;94;21119;-47
2021/07/15 03:26:06;;;;;;;14.65;6.67;;;;;;;29.29;49.01;101437.47;1478431;95;21078;-45
2021/07/15 03:28:37;;;;;;;10.35;6.10;;;;;;;29.31;49.05;101436.84;1496245;94;21154;-48
2021/07/15 03:31:10;;;;;;;13.25;5.55;;;;;;;29.32;48.91;101434.53;1529956;92;21066;-45
2021/07/15 03:33:38;;;;;;;16.00;6.85;;;;;;;29.36;48.41;101434.60;1537973;93;21140;-51
2021/07/15 03:36:07;;;;;;;41.02;9.70;;;;;;;29.39;48.38;101432.97;1541493;92;21081;-49
2021/07/15 03:38:34;;;;;;;12.55;6.33;;;;;;;29.42;48.10;101430.89;1535570;92;21097;-47
2021/07/15 03:41:02;;;;;;;10.68;6.03;;;;;;;29.48;47.92;101433.50;1539577;92;21111;-46
2021/07/15 03:43:29;;;;;;;8.10;6.10;;;;;;;29.56;47.64;101433.16;1536775;92;21083;-46
2021/07/15 03:45:57;;;;;;;8.80;5.75;;;;;;;29.77;47.29;101434.42;1525487;92;21144;-49
2021/07/15 03:48:26;;;;;;;13.78;6.08;;;;;;;30.15;46.55;101438.44;1542057;91;22323;-48
2021/07/15 03:51:02;;;;;;;8.05;5.72;;;;;;;30.74;45.37;101432.00;1519455;92;21119;-45
2021/07/15 03:53:28;;;;;;;7.95;5.50;;;;;;;31.44;43.56;101437.67;1505474;95;21626;-47
2021/07/15 03:55:58;;;;;;;10.10;6.50;;;;;;;32.20;41.89;101430.00;1501459;94;21078;-46
2021/07/15 03:58:25;;;;;;;11.60;6.72;;;;;;;32.85;40.50;101426.78;1467204;97;21177;-46
2021/07/15 04:01:02;;;;;;;9.45;5.78;;;;;;;33.41;39.44;101424.33;1466888;96;21694;-48
2021/07/15 04:03:30;;;;;;;124.00;14.90;;;;;;;33.95;38.31;101426.13;1505197;94;21631;-48
2021/07/15 04:05:58;;;;;;;81.40;11.22;;;;;;;34.46;37.27;101424.43;1515933;93;21671;-46
2021/07/15 04:08:27;;;;;;;30.90;7.87;;;;;;;34.79;36.77;101431.48;1536637;93;21084;-49
2021/07/15 04:10:56;;;;;;;13.30;7.50;;;;;;;34.93;36.53;101429.94;1531519;93;22820;-48
2021/07/15 04:13:25;;;;;;;21.57;7.58;;;;;;;34.89;36.44;101430.77;1532906;93;21072;-49
2021/07/15 04:16:24;;;;;;;18.92;7.03;;;;;;;34.71;36.85;101426.10;1509716;93;21625;-50
2021/07/15 04:18:55;;;;;;;34.25;8.20;;;;;;;34.43;37.12;101424.79;1524624;93;21120;-48
2021/07/15 04:21:22;;;;;;;7.80;6.50;;;;;;;34.07;37.52;101427.50;1537565;93;21461;-47
2021/07/15 04:23:51;;;;;;;18.55;7.33;;;;;;;33.73;38.17;101434.88;1538517;93;21072;-49
2021/07/15 04:26:18;;;;;;;12.82;6.33;;;;;;;33.38;38.79;101431.41;1533625;93;21583;-49
2021/07/15 04:28:45;;;;;;;11.55;7.10;;;;;;;33.08;39.48;101433.30;1535652;93;21099;-47
2021/07/15 04:31:27;;;;;;;13.00;6.78;;;;;;;32.79;39.94;101428.25;1532515;93;21584;-50
2021/07/15 04:33:54;;;;;;;10.85;6.42;;;;;;;32.52;40.53;101436.50;1535795;93;21107;-47
2021/07/15 04:36:21;;;;;;;13.28;6.58;;;;;;;32.25;41.02;101433.09;1534616;92;21096;-53
2021/07/15 04:38:48;;;;;;;9.88;6.37;;;;;;;32.03;41.18;101434.41;1534005;93;21116;-50
2021/07/15 04:41:15;;;;;;;16.30;6.00;;;;;;;31.84;41.21;101438.07;1534052;93;21103;-50
2021/07/15 04:43:42;;;;;;;8.03;6.03;;;;;;;31.65;41.17;101438.23;1533113;93;21116;-47
2021/07/15 04:46:10;;;;;;;8.95;5.47;;;;;;;31.51;41.49;101441.42;1533598;92;21101;-47
2021/07/15 04:48:37;;;;;;;16.42;6.90;;;;;;;31.37;41.98;101441.91;1503256;93;21056;-47
2021/07/15 04:51:06;;;;;;;10.00;6.05;;;;;;;31.26;42.28;101438.10;1577927;89;21171;-52
2021/07/15 04:53:34;;;;;;;11.57;5.97;;;;;;;31.17;42.38;101443.87;1589749;88;21557;-49
2021/07/15 04:56:00;;;;;;;9.30;6.03;;;;;;;31.08;42.40;101439.38;1601075;89;21049;-48
2021/07/15 04:58:27;;;;;;;10.75;6.05;;;;;;;31.01;42.60;101440.13;1611617;88;21111;-47
2021/07/15 05:00:54;;;;;;;10.05;5.72;;;;;;;30.94;42.64;101444.39;1606699;88;21043;-53
2021/07/15 05:03:37;;;;;;;10.45;6.00;;;;;;;30.88;42.74;101446.33;1611724;88;21523;-47
2021/07/15 05:06:06;;;;;;;232.45;18.80;;;;;;;30.85;42.75;101452.02;1608861;87;21130;-48
2021/07/15 05:08:37;;;;;;;153.07;12.98;;;;;;;30.79;43.03;101450.70;1598886;89;21034;-48
2021/07/15 05:11:04;;;;;;;17.55;6.80;;;;;;;30.77;42.84;101450.52;1616481;88;21066;-47
2021/07/15 05:13:32;;;;;;;9.65;6.15;;;;;;;30.76;42.81;101448.33;1615886;88;21136;-50
2021/07/15 05:15:59;;;;;;;10.45;5.92;;;;;;;30.79;43.04;101445.85;1613369;88;21119;-46
2021/07/15 05:18:26;;;;;;;20.35;5.92;;;;;;;30.83;42.95;101450.76;1610195;88;21108;-50
2021/07/15 05:20:53;;;;;;;20.35;7.00;;;;;;;30.91;42.96;101452.28;1613864;88;21079;-48
2021/07/15 05:23:21;;;;;;;232.85;18.30;;;;;;;31.00;42.76;101451.38;1615266;88;21075;-48
2021/07/15 05:25:51;;;;;;;15.75;7.45;;;;;;;31.11;42.69;101449.00;1601700;89;21121;-52
2021/07/15 05:28:18;;;;;;;11.60;5.78;;;;;;;31.21;42.18;101451.13;1611543;88;21083;-49
2021/07/15 05:30:47;;;;;;;11.65;5.80;;;;;;;31.27;42.09;101449.19;1612229;88;21095;-47
2021/07/15 05:33:14;;;;;;;14.33;5.17;;;;;;;31.33;41.85;101448.59;1611266;88;21079;-49
2021/07/15 05:35:43;;;;;;;13.00;4.83;;;;;;;31.41;41.58;101448.72;1611381;88;21104;-46
2021/07/15 05:38:10;;;;;;;10.45;5.75;;;;;;;31.49;41.24;101451.49;1611941;87;21543;-46
2021/07/15 05:40:38;;;;;;;5.92;4.72;;;;;;;31.58;40.97;101455.98;1616094;88;21107;-48
2021/07/15 05:43:05;;;;;;;8.38;4.47;;;;;;;31.67;40.45;101457.77;1611704;88;21061;-47
2021/07/15 05:45:32;;;;;;;8.90;4.83;;;;;;;31.77;40.52;101457.69;1603299;88;21094;-48
2021/07/15 05:47:59;;;;;;;14.70;5.05;;;;;;;31.87;40.38;101456.63;1610728;88;21098;-50
2021/07/15 05:50:26;;;;;;;8.05;5.22;;;;;;;31.98;39.58;101464.48;1614147;88;21575;-47
2021/07/15 05:52:53;;;;;;;8.35;5.40;;;;;;;32.09;38.93;101465.60;1613658;88;21143;-49
2021/07/15 05:55:21;;;;;;;9.68;4.92;;;;;;;32.20;38.94;101467.22;1603915;88;21147;-46
2021/07/15 05:57:48;;;;;;;10.78;5.25;;;;;;;32.31;38.94;101464.78;1613037;88;21093;-48
2021/07/15 06:00:16;;;;;;;8.08;4.72;;;;;;;32.42;39.06;101467.23;1611814;88;21092;-49
2021/07/15 06:02:44;;;;;;;10.25;5.50;;;;;;;32.54;38.73;101468.70;1610291;88;21563;-49
2021/07/15 06:05:12;;;;;;;7.70;5.85;;;;;;;32.65;38.29;101466.58;1613422;88;21027;-49
2021/07/15 06:07:39;;;;;;;6.00;4.70;;;;;;;32.80;38.30;101472.23;1613628;88;21591;-47
2021/07/15 06:10:08;;;;;;;12.25;5.47;;;;;;;32.94;37.77;101466.24;1627184;87;21056;-50
2021/07/15 06:12:35;;;;;;;11.38;5.08;;;;;;;33.10;37.63;101469.05;1636799;87;21508;-51
2021/07/15 06:15:02;;;;;;;8.20;5.17;;;;;;;33.23;37.26;101465.41;1639898;86;21083;-49
2021/07/15 06:17:29;;;;;;;11.88;5.10;;;;;;;33.36;37.04;101463.60;1639752;87;21088;-47
2021/07/15 06:19:56;;;;;;;7.75;4.22;;;;;;;33.49;36.70;101455.94;1628648;87;21119;-48
2021/07/15 06:22:24;;;;;;;15.50;4.42;;;;;;;33.64;36.83;101461.86;1638918;87;21016;-47
2021/07/15 06:24:51;;;;;;;7.22;3.30;;;;;;;33.84;35.50;101454.82;1639057;86;21110;-51
2021/07/15 06:27:19;;;;;;;6.35;3.08;;;;;;;34.02;33.87;101451.48;1639473;86;21694;-52
2021/07/15 06:29:46;;;;;;;10.55;3.30;;;;;;;34.11;33.26;101446.41;1641016;86;21654;-47
2021/07/15 06:32:14;;;;;;;7.90;3.10;;;;;;;34.18;32.83;101452.84;1638071;87;21040;-50
2021/07/15 06:34:43;;;;;;;7.97;2.95;;;;;;;34.17;32.60;101452.52;1638400;86;21075;-50
2021/07/15 06:37:10;;;;;;;9.10;3.10;;;;;;;34.14;32.33;101451.48;1636954;87;21528;-47
2021/07/15 06:39:38;;;;;;;6.28;2.90;;;;;;;34.11;32.33;101445.06;1630856;87;21032;-49
2021/07/15 06:42:05;;;;;;;11.12;3.92;;;;;;;34.05;32.10;101447.09;1638087;86;21087;-46
2021/07/15 06:44:32;;;;;;;12.33;3.50;;;;;;;34.00;32.51;101442.71;1640746;87;21112;-48
2021/07/15 06:47:04;;;;;;;7.20;3.20;;;;;;;33.94;32.48;101442.00;1641566;87;21087;-48
2021/07/15 06:49:30;;;;;;;5.92;3.30;;;;;;;33.90;32.45;101442.00;1633063;87;21091;-48
2021/07/15 06:51:57;;;;;;;9.33;4.60;;;;;;;33.86;32.52;101444.70;1639488;86;21079;-49
2021/07/15 06:54:24;;;;;;;29.05;9.93;;;;;;;33.82;32.69;101430.66;1640710;86;21059;-46
2021/07/15 06:56:51;;;;;;;32.10;16.80;;;;;;;33.81;32.31;101430.84;1641096;86;21075;-47
2021/07/15 06:59:20;;;;;;;28.40;20.30;;;;;;;33.75;32.36;101430.16;1629490;87;21104;-46
2021/07/15 07:01:47;;;;;;;26.60;14.78;;;;;;;33.71;32.31;101430.16;1633696;87;21515;-50
2021/07/15 07:04:14;;;;;;;26.00;17.02;;;;;;;33.68;32.88;101441.27;1623978;88;21088;-53
2021/07/15 07:06:41;;;;;;;22.22;12.68;;;;;;;33.63;33.51;101439.91;1638249;87;21039;-46
2021/07/15 07:09:08;;;;;;;26.57;15.30;;;;;;;33.61;33.96;101431.14;1625898;85;21002;-47
2021/07/15 07:11:36;;;;;;;27.77;15.68;;;;;;;33.61;34.44;101432.49;1616413;88;21494;-49
2021/07/15 07:14:03;;;;;;;24.35;15.18;;;;;;;33.58;34.29;101435.54;1616979;88;21066;-48
2021/07/15 07:16:32;;;;;;;28.50;12.82;;;;;;;33.55;34.71;101436.38;1616743;88;21125;-50
2021/07/15 07:18:59;;;;;;;19.42;7.28;;;;;;;33.54;34.74;101436.87;1639600;86;21055;-51
2021/07/15 07:21:30;;;;;;;11.18;4.83;;;;;;;33.54;34.37;101432.83;1642477;86;21087;-48
2021/07/15 07:23:59;;;;;;;16.57;9.88;;;;;;;33.51;34.36;101428.28;1636912;86;21043;-49
2021/07/15 07:26:26;;;;;;;16.17;9.05;;;;;;;33.47;35.18;101434.45;1643656;86;21079;-49
2021/07/15 07:28:54;;;;;;;16.45;7.55;;;;;;;33.49;35.32;101433.81;1641305;87;21578;-49
2021/07/15 07:31:22;;;;;;;17.75;7.12;;;;;;;33.49;35.47;101432.47;1632763;87;21131;-49
2021/07/15 07:33:48;;;;;;;19.02;8.63;;;;;;;33.50;35.87;101430.13;1638828;87;21539;-50
2021/07/15 07:36:17;;;;;;;10.45;5.87;;;;;;;33.51;36.54;101430.45;1631502;87;21059;-49
2021/07/15 07:38:45;;;;;;;9.20;6.33;;;;;;;33.53;36.31;101431.13;1640557;86;21036;-47
2021/07/15 07:41:12;;;;;;;16.25;9.18;;;;;;;33.53;36.35;101436.52;1639247;86;21096;-50
2021/07/15 07:43:40;;;;;;;16.20;6.58;;;;;;;33.51;36.95;101427.75;1636287;86;21350;-50
2021/07/15 07:46:08;;;;;;;11.80;6.30;;;;;;;33.50;37.33;101427.42;1637166;86;21075;-47
2021/07/15 07:48:35;;;;;;;8.88;4.90;;;;;;;33.48;37.99;101433.46;1638266;86;21532;-49
2021/07/15 07:51:02;;;;;;;10.82;3.90;;;;;;;33.44;37.59;101431.25;1639684;87;21055;-47
2021/07/15 07:53:30;;;;;;;7.62;5.58;;;;;;;33.41;37.86;101427.02;1641335;87;21063;-47
2021/07/15 07:55:57;;;;;;;8.55;3.98;;;;;;;33.40;38.36;101432.59;1640949;86;21080;-52
2021/07/15 07:58:25;;;;;;;6.42;3.83;;;;;;;33.41;38.15;101432.41;1638563;86;21047;-50
2021/07/15 08:00:52;;;;;;;5.22;3.20;;;;;;;33.42;38.07;101432.77;1638952;87;21075;-50
2021/07/15 08:03:19;;;;;;;6.60;3.17;;;;;;;33.45;37.59;101425.68;1641470;86;21548;-47
2021/07/15 08:05:47;;;;;;;7.97;4.05;;;;;;;33.48;38.04;101429.91;1640041;86;21028;-49
2021/07/15 08:08:17;;;;;;;6.10;4.30;;;;;;;33.50;38.83;101435.52;1640307;86;21075;-49
2021/07/15 08:10:43;;;;;;;12.13;3.95;;;;;;;33.51;38.10;101433.14;1631457;87;21571;-49
2021/07/15 08:13:11;;;;;;;11.90;6.00;;;;;;;33.49;37.37;101431.12;1637763;87;21119;-47
2021/07/15 08:15:37;;;;;;;12.75;6.85;;;;;;;33.47;37.00;101427.70;1640658;87;21024;-50
2021/07/15 08:18:06;;;;;;;19.55;8.30;;;;;;;33.49;37.50;101428.95;1636120;87;21091;-48
2021/07/15 08:20:33;;;;;;;14.35;6.55;;;;;;;33.50;38.22;101430.13;1641614;87;21016;-50
2021/07/15 08:23:00;;;;;;;8.35;5.60;;;;;;;33.50;37.52;101428.77;1643064;86;21000;-49
2021/07/15 08:25:27;;;;;;;6.37;3.90;;;;;;;33.53;37.83;101428.42;1641176;86;21606;-47
2021/07/15 08:27:54;;;;;;;10.72;5.65;;;;;;;33.56;37.85;101428.11;1639375;86;20996;-50
2021/07/15 08:30:21;;;;;;;7.65;3.87;;;;;;;33.61;38.01;101428.44;1640053;87;21048;-49
2021/07/15 08:32:47;;;;;;;5.85;3.50;;;;;;;33.67;37.85;101428.80;1638021;87;21606;-50
2021/07/15 08:35:14;;;;;;;4.65;3.50;;;;;;;33.71;38.27;101420.71;1637617;86;21088;-47
2021/07/15 08:37:41;;;;;;;9.65;3.85;;;;;;;33.74;38.33;101421.73;1639724;86;21096;-48
2021/07/15 08:40:09;;;;;;;6.05;3.58;;;;;;;33.74;38.20;101421.73;1640373;86;21051;-49
2021/07/15 08:42:38;;;;;;;13.10;4.15;;;;;;;33.75;38.75;101420.71;1639666;86;21530;-47
2021/07/15 08:45:07;;;;;;;7.22;3.65;;;;;;;33.69;38.81;101421.38;1637651;86;21575;-51
2021/07/15 08:47:39;;;;;;;5.17;3.40;;;;;;;33.63;38.86;101426.42;1635240;86;21603;-52
2021/07/15 08:50:08;;;;;;;6.62;3.27;;;;;;;33.62;39.35;101425.25;1638217;87;21063;-46
2021/07/15 08:52:35;;;;;;;6.40;3.40;;;;;;;33.63;39.25;101423.72;1640739;86;21083;-48
2021/07/15 08:57:37;;;;;;;7.10;3.77;;;;;;;33.62;39.65;101427.45;1640729;86;21099;-47
2021/07/15 09:00:11;;;;;;;6.80;3.95;;;;;;;33.60;40.03;101423.22;1634784;87;21016;-48
2021/07/15 09:02:39;;;;;;;7.72;3.85;;;;;;;33.59;40.65;101417.50;1565690;89;21135;-47
2021/07/15 09:05:08;;;;;;;7.05;3.67;;;;;;;33.52;41.04;101417.31;1572175;89;21101;-49
2021/07/15 09:07:39;;;;;;;6.30;3.87;;;;;;;33.45;40.95;101420.28;1572946;89;21121;-49
2021/07/15 09:10:07;;;;;;;7.47;3.40;;;;;;;33.42;41.30;101417.94;1566422;89;21031;-49
2021/07/15 09:12:35;;;;;;;12.43;3.93;;;;;;;33.46;41.42;101414.39;1599592;88;21087;-49
2021/07/15 09:17:40;;;;;;;9.83;3.90;;;;;;;33.57;41.77;101415.47;1589684;89;21643;-48
2021/07/15 09:20:18;;;;;;;14.70;5.08;;;;;;;33.64;41.85;101414.62;1571505;90;21064;-49
2021/07/15 09:23:02;;;;;;;24.95;7.85;;;;;;;33.73;42.33;101409.23;1575225;90;21098;-49
2021/07/15 09:25:43;;;;;;;10.43;4.42;;;;;;;33.77;42.05;101410.59;1579129;89;21130;-50
2021/07/15 09:28:13;;;;;;;11.08;4.00;;;;;;;33.80;42.40;101415.14;1580707;89;21147;-49
2021/07/15 09:30:42;;;;;;;9.20;3.25;;;;;;;33.86;42.14;101416.34;1605020;88;21078;-48
2021/07/15 09:33:10;;;;;;;5.42;3.33;;;;;;;33.92;41.71;101414.33;1593386;89;21179;-48
2021/07/15 09:35:43;;;;;;;12.13;3.72;;;;;;;33.94;41.92;101411.80;1602771;88;21134;-49
2021/07/15 09:38:18;;;;;;;5.55;3.62;;;;;;;34.00;41.80;101414.36;1593239;88;21112;-49
2021/07/15 09:40:51;;;;;;;7.97;3.70;;;;;;;34.05;41.67;101426.83;1601238;89;21118;-49
2021/07/15 09:43:41;;;;;;;7.35;3.05;;;;;;;34.10;41.71;101420.43;1594305;89;21069;-50
2021/07/15 09:46:16;;;;;;;6.15;3.10;;;;;;;34.13;40.75;101420.07;1571261;90;21163;-46
2021/07/15 09:49:08;;;;;;;7.50;3.33;;;;;;;34.15;40.54;101428.88;1606512;89;21058;-47
2021/07/15 09:51:40;;;;;;;10.43;3.62;;;;;;;34.14;41.08;101417.72;1542413;92;21088;-48
2021/07/15 09:54:07;;;;;;;6.47;3.27;;;;;;;34.18;41.27;101417.72;1508215;94;21141;-47
2021/07/15 09:56:46;;;;;;;7.53;3.50;;;;;;;34.21;41.56;101420.91;1508157;94;21140;-50
2021/07/15 09:59:13;;;;;;;6.08;3.55;;;;;;;34.24;41.55;101422.44;1506164;94;21176;-47
2021/07/15 10:01:50;;;;;;;8.10;3.80;;;;;;;34.28;41.55;101423.78;1505790;94;21109;-46
2021/07/15 10:04:23;;;;;;;5.08;3.30;;;;;;;34.30;41.38;101427.16;1473640;96;21150;-48
2021/07/15 10:06:53;;;;;;;8.50;4.03;;;;;;;34.32;41.61;101419.73;1432752;99;21140;-48
2021/07/15 10:09:25;;;;;;;9.43;4.08;;;;;;;34.34;41.70;101420.40;1461494;96;21669;-46
2021/07/15 10:12:00;;;;;;;8.20;3.52;;;;;;;34.36;41.68;101430.03;1512946;94;21103;-48
2021/07/15 10:14:37;;;;;;;5.55;3.02;;;;;;;34.37;41.79;101427.68;1510795;93;21050;-46
2021/07/15 10:17:06;;;;;;;4.58;3.00;;;;;;;34.37;41.54;101424.13;1490052;95;21104;-46
2021/07/15 10:19:35;;;;;;;9.03;3.33;;;;;;;34.37;41.84;101425.48;1490674;95;21084;-52
2021/07/15 10:22:07;;;;;;;5.95;3.27;;;;;;;34.36;41.90;101423.77;1491017;95;21684;-50
2021/07/15 10:24:34;;;;;;;5.80;3.47;;;;;;;34.37;41.82;101422.77;1490166;96;21575;-46
2021/07/15 10:27:09;;;;;;;7.28;3.30;;;;;;;34.38;41.68;101419.05;1477604;96;21119;-49
2021/07/15 10:29:37;;;;;;;6.08;3.02;;;;;;;34.41;41.58;101422.77;1490132;95;21100;-49
2021/07/15 10:32:06;;;;;;;5.50;3.37;;;;;;;34.42;41.79;101415.83;1489158;95;21104;-49
2021/07/15 10:34:33;;;;;;;6.87;3.10;;;;;;;34.44;41.58;101412.95;1489365;95;21064;-49
2021/07/15 10:37:02;;;;;;;4.62;2.67;;;;;;;34.48;41.35;101413.47;1489294;95;21092;-47
2021/07/15 10:39:30;;;;;;;5.03;3.65;;;;;;;34.48;40.61;101408.89;1470388;95;21080;-50
2021/07/15 10:41:59;;;;;;;4.28;3.62;;;;;;;34.51;40.43;101413.99;1490228;95;21611;-47
2021/07/15 10:44:28;;;;;;;8.43;3.85;;;;;;;34.51;40.25;101403.19;1489455;95;21124;-52
2021/07/15 10:46:59;;;;;;;8.35;3.98;;;;;;;34.54;40.60;101414.16;1487765;95;21691;-50
2021/07/15 10:49:27;;;;;;;7.93;4.20;;;;;;;34.55;40.51;101409.08;1460528;97;21152;-47
2021/07/15 10:51:56;;;;;;;6.47;4.00;;;;;;;34.57;40.20;101407.90;1474091;96;21148;-48
2021/07/15 10:54:25;;;;;;;5.15;3.10;;;;;;;34.60;40.12;101406.22;1481485;96;21178;-49
2021/07/15 10:56:53;;;;;;;7.28;3.15;;;;;;;34.64;40.59;101404.85;1513230;94;21086;-49
2021/07/15 10:59:28;;;;;;;7.75;3.62;;;;;;;34.65;40.46;101405.17;1499674;94;21095;-50
2021/07/15 11:02:00;;;;;;;5.37;3.58;;;;;;;34.68;39.95;101404.84;1500108;95;21144;-48
2021/07/15 11:04:35;;;;;;;;;;;;;;;34.70;40.36;101405.51;1561376;91;21045;-49
2021/07/15 11:07:27;;;;;;;5.50;3.22;;;;;;;34.71;39.57;101407.17;1579020;91;20120;-47
2021/07/15 11:10:21;;;;;;;5.70;2.92;;;;;;;34.71;39.21;101395.52;1578599;91;21049;-52
2021/07/15 11:13:03;;;;;;;10.68;5.90;;;;;;;34.71;39.26;101401.77;1587248;86;21193;-50
2021/07/15 11:15:52;;;;;;;7.15;3.65;;;;;;;34.71;39.75;101399.06;1595422;87;21057;-49
2021/07/15 11:21:30;;;;;;;8.05;2.90;;;;;;;34.76;38.75;101396.70;1559414;91;21097;-49
2021/07/15 11:24:11;;;;;;;4.50;2.67;;;;;;;34.76;38.36;101388.59;1551307;91;21094;-47
2021/07/15 11:29:12;;;;;;;4.97;3.20;;;;;;;34.75;38.78;101395.00;1545454;92;21087;-46
2021/07/15 11:31:49;;;;;;;5.17;3.00;;;;;;;34.77;38.86;101397.52;1541032;92;21083;-48
2021/07/15 11:34:40;;;;;;;6.92;3.27;;;;;;;34.79;38.42;101395.52;1526273;92;21109;-47
2021/07/15 11:37:32;;;;;;;4.55;2.67;;;;;;;34.81;38.19;101397.00;1536806;90;21108;-46
2021/07/15 11:40:00;;;;;;;3.60;2.60;;;;;;;34.81;37.47;101397.00;1501784;94;21096;-47
2021/07/15 11:42:32;;;;;;;6.95;2.98;;;;;;;34.80;37.05;101396.69;1504321;94;21100;-49
2021/07/15 11:45:11;;;;;;;7.80;4.10;;;;;;;34.80;37.56;101395.33;1503410;94;21163;-53
2021/07/15 11:47:53;;;;;;;7.35;3.85;;;;;;;34.82;36.97;101398.70;1466018;97;21094;-50